KISQ

Details ICAO KISQ
Name SCHOOLCRAFT CO
Region United States
Timezone America/Detroit (UTC-4.0)
Plans Departing 0
Arriving 0
Stats Elevation 685 ft / 209 m (AMSL)
Location 45.974481° -86.171523°
Runways 2
Magnetic Variation 5.913° W
Sunrise 2018-05-22 10:06:37 UTC / 2018-05-22 06:06:37 Local
Sunset 2018-05-23 01:18:58 UTC / 2018-05-22 21:18:58 Local
Advertisement - Login to hide

Runways

ID Width Length Bearing (true) Bearing (mag) Surface Threshold Offset Overrun Length
10 100 ft / 30 m 4,986 ft / 1,520 m 90.10° 96.01° Asphalt 0 ft / 0 m 0 ft / 0 m
18 50 ft / 15 m 2,502 ft / 763 m 179.11° 185.02° Asphalt 0 ft / 0 m 0 ft / 0 m
28 100 ft / 30 m 4,986 ft / 1,520 m 270.11° 276.02° Asphalt 0 ft / 0 m 0 ft / 0 m
36 50 ft / 15 m 2,502 ft / 763 m 359.11° 5.02° Asphalt 0 ft / 0 m 0 ft / 0 m

Map

Weather


0- 5 10 15 20 25 30 35+ Temperature / ° C

Clouds and Precipitation
Forecast for 2018-05-22 12:00 UTC. Updated an hour ago

Ground ~20,000 ft ~40,000 ft Winds

METAR

KISQ 221235Z AUTO 28005KT 10SM OVC060 13/09 A3003 RMK AO2 T01270087

TAF

Not found

Frequencies

Unicom 122.80 MHz CTAF/UNICOM
Warning: Do not use this data for real-world aviation or navigation. No guarantee of current accuracy is given.